Time,TemperatureF,DewpointF,PressureIn,WindDirection,WindDirectionDegrees,WindSpeedMPH,WindSpeedGustMPH,Humidity,HourlyPrecipIn,Conditions,Clouds,dailyrainin,SoftwareType,DateUTC
2013-09-19 02:22:00,55.0,50.0,-100.00,North,1,0.0,-999.0,82,-99.99,,,0.00,,2013-09-19 06:22:00,
2013-09-19 02:32:00,55.0,50.0,-100.00,North,1,0.0,-999.0,82,-99.99,,,0.00,,2013-09-19 06:32:00,
2013-09-19 02:43:00,55.0,50.0,-100.00,North,1,0.0,-999.0,82,-99.99,,,0.00,,2013-09-19 06:43:00,
2013-09-19 03:22:00,54.0,49.0,-100.00,North,-999,0.0,-999.0,83,-99.99,,,0.00,,2013-09-19 07:22:00,
2013-09-19 03:33:00,54.0,49.0,-100.00,North,-999,0.0,-999.0,83,-99.99,,,0.00,,2013-09-19 07:33:00,
2013-09-19 03:42:00,54.0,49.0,-100.00,North,-999,0.0,-999.0,83,-99.99,,,0.00,,2013-09-19 07:42:00,
2013-09-19 09:43:00,57.0,49.0,-100.00,North,-999,-999.0,-999.0,74,-99.99,,,0.00,,2013-09-19 13:43:00,
2013-09-19 10:12:00,61.0,48.0,-100.00,North,-999,0.0,-999.0,63,0.00,,,0.00,,2013-09-19 14:12:00,
2013-09-19 10:22:00,61.0,48.0,-100.00,North,-999,0.0,-999.0,63,0.00,,,0.00,,2013-09-19 14:22:00,
2013-09-19 10:32:00,61.0,48.0,-100.00,North,-999,0.0,-999.0,63,0.00,,,0.00,,2013-09-19 14:32:00,
2013-09-19 10:42:00,61.0,48.0,-100.00,North,-999,0.0,-999.0,63,0.00,,,0.00,,2013-09-19 14:42:00,
2013-09-19 11:11:00,64.0,50.0,-100.00,North,-999,0.0,-999.0,60,0.00,,,0.00,,2013-09-19 15:11:00,
2013-09-19 11:22:00,64.0,50.0,-100.00,North,-999,0.0,-999.0,60,0.00,,,0.00,,2013-09-19 15:22:00,
2013-09-19 11:33:00,64.0,50.0,-100.00,North,-999,0.0,-999.0,60,0.00,,,0.00,,2013-09-19 15:33:00,
2013-09-19 11:43:00,64.0,50.0,-100.00,North,-999,0.0,-999.0,60,0.00,,,0.00,,2013-09-19 15:43:00,
2013-09-19 12:13:00,69.0,49.0,-100.00,North,-999,0.0,-999.0,49,0.00,,,0.00,,2013-09-19 16:13:00,
2013-09-19 12:24:00,69.0,49.0,-100.00,North,-999,0.0,-999.0,49,0.00,,,0.00,,2013-09-19 16:24:00,
2013-09-19 12:33:00,69.0,49.0,-100.00,North,-999,0.0,-999.0,49,0.00,,,0.00,,2013-09-19 16:33:00,
2013-09-19 12:43:00,69.0,49.0,-100.00,North,-999,0.0,-999.0,49,0.00,,,0.00,,2013-09-19 16:43:00,
2013-09-19 13:12:00,77.0,46.0,-100.00,North,-999,-999.0,-999.0,33,0.00,,,-99.99,,2013-09-19 17:12:00,
2013-09-19 13:23:00,77.0,46.0,-100.00,North,-999,-999.0,-999.0,33,0.00,,,-99.99,,2013-09-19 17:23:00,
2013-09-19 13:30:00,79.0,46.0,-100.00,North,-999,-999.0,-999.0,32,0.00,,,0.00,,2013-09-19 17:30:00,
2013-09-19 13:34:00,77.0,46.0,-100.00,North,-999,-999.0,-999.0,33,0.00,,,-99.99,,2013-09-19 17:34:00,
2013-09-19 13:42:00,77.0,46.0,-100.00,North,-999,-999.0,-999.0,33,0.00,,,-99.99,,2013-09-19 17:42:00,
2013-09-19 14:22:00,79.0,46.0,-100.00,North,-999,-999.0,-999.0,32,0.00,,,0.00,,2013-09-19 18:22:00,
2013-09-19 17:30:00,74.0,52.0,-100.00,North,-999,0.0,-999.0,46,-99.99,,,0.00,,2013-09-19 21:30:00,
2013-09-19 18:14:00,74.0,52.0,-100.00,North,-999,0.0,-999.0,46,-99.99,,,0.00,,2013-09-19 22:14:00,
2013-09-19 18:24:00,74.0,52.0,-100.00,North,-999,0.0,-999.0,46,-99.99,,,0.00,,2013-09-19 22:24:00,
2013-09-19 19:12:00,67.0,57.0,-100.00,North,-999,0.0,-999.0,69,-99.99,,,0.00,,2013-09-19 23:12:00,
2013-09-19 19:23:00,67.0,57.0,-100.00,North,-999,0.0,-999.0,69,-99.99,,,0.00,,2013-09-19 23:23:00,
2013-09-19 19:30:00,64.0,55.0,-100.00,North,-999,0.0,-999.0,71,0.00,,,0.00,,2013-09-19 23:30:00,
2013-09-19 19:34:00,67.0,57.0,-100.00,North,-999,0.0,-999.0,69,-99.99,,,0.00,,2013-09-19 23:34:00,
2013-09-19 19:43:00,67.0,57.0,-100.00,North,-999,0.0,-999.0,69,-99.99,,,0.00,,2013-09-19 23:43:00,
2013-09-19 20:12:00,64.0,55.0,-100.00,North,-999,0.0,-999.0,71,0.00,,,0.00,,2013-09-20 00:12:00,
2013-09-19 20:22:00,64.0,55.0,-100.00,North,-999,0.0,-999.0,71,0.00,,,0.00,,2013-09-20 00:22:00,
2013-09-19 21:12:00,61.0,55.0,-100.00,North,-999,0.0,-999.0,79,-99.99,,,0.00,,2013-09-20 01:12:00,
2013-09-19 21:22:00,61.0,55.0,-100.00,North,-999,0.0,-999.0,79,-99.99,,,0.00,,2013-09-20 01:22:00,
2013-09-19 21:32:00,61.0,55.0,-100.00,North,-999,0.0,-999.0,79,-99.99,,,0.00,,2013-09-20 01:32:00,
2013-09-19 21:42:00,61.0,55.0,-100.00,North,-999,0.0,-999.0,79,-99.99,,,0.00,,2013-09-20 01:42:00,
2013-09-19 22:12:00,60.0,55.0,-100.00,North,-999,0.0,-999.0,82,0.00,,,0.00,,2013-09-20 02:12:00,
2013-09-19 22:22:00,60.0,55.0,-100.00,North,-999,0.0,-999.0,82,0.00,,,0.00,,2013-09-20 02:22:00,
2013-09-19 22:32:00,60.0,55.0,-100.00,North,-999,0.0,-999.0,82,0.00,,,0.00,,2013-09-20 02:32:00,
2013-09-19 22:42:00,60.0,55.0,-100.00,North,-999,0.0,-999.0,82,0.00,,,0.00,,2013-09-20 02:42:00,
2013-09-19 22:45:00,58.0,54.0,-100.00,North,-999,0.0,-999.0,85,-99.99,,,0.00,,2013-09-20 02:45:00,
2013-09-19 23:12:00,58.0,54.0,-100.00,North,-999,0.0,-999.0,85,-99.99,,,0.00,,2013-09-20 03:12:00,
2013-09-19 23:23:00,58.0,54.0,-100.00,North,-999,0.0,-999.0,85,-99.99,,,0.00,,2013-09-20 03:23:00,
2013-09-19 23:34:00,58.0,54.0,-100.00,North,-999,0.0,-999.0,85,-99.99,,,0.00,,2013-09-20 03:34:00,